sensor_id;sensor_type;location;lat;lon;timestamp;pressure;altitude;pressure_sealevel;temperature;humidity
76022;BME280;64718;52.124;6.226;2023-07-13T00:00:06;101342.50;;;14.10;99.26
76022;BME280;64718;52.124;6.226;2023-07-13T00:02:35;101338.78;;;13.97;100.00
76022;BME280;64718;52.124;6.226;2023-07-13T00:05:04;101338.31;;;13.88;100.00
76022;BME280;64718;52.124;6.226;2023-07-13T00:07:31;101342.75;;;13.86;100.00
76022;BME280;64718;52.124;6.226;2023-07-13T00:09:58;101345.03;;;13.75;100.00
76022;BME280;64718;52.124;6.226;2023-07-13T00:12:28;101342.19;;;13.80;100.00
76022;BME280;64718;52.124;6.226;2023-07-13T00:14:57;101341.28;;;13.81;100.00
76022;BME280;64718;52.124;6.226;2023-07-13T00:17:24;101349.03;;;14.01;100.00
76022;BME280;64718;52.124;6.226;2023-07-13T00:19:51;101346.66;;;14.14;100.00
76022;BME280;64718;52.124;6.226;2023-07-13T00:22:19;101343.03;;;14.16;100.00
76022;BME280;64718;52.124;6.226;2023-07-13T00:24:46;101344.13;;;14.12;100.00
76022;BME280;64718;52.124;6.226;2023-07-13T00:27:13;101342.88;;;14.02;100.00
76022;BME280;64718;52.124;6.226;2023-07-13T00:29:40;101345.88;;;13.95;100.00
76022;BME280;64718;52.124;6.226;2023-07-13T00:32:09;101357.41;;;13.90;100.00
76022;BME280;64718;52.124;6.226;2023-07-13T00:34:37;101350.66;;;14.04;100.00
76022;BME280;64718;52.124;6.226;2023-07-13T00:37:04;101354.25;;;14.01;100.00
76022;BME280;64718;52.124;6.226;2023-07-13T00:39:34;101352.66;;;13.99;100.00
76022;BME280;64718;52.124;6.226;2023-07-13T00:42:01;101340.09;;;14.05;100.00
76022;BME280;64718;52.124;6.226;2023-07-13T00:44:28;101354.25;;;14.01;100.00
76022;BME280;64718;52.124;6.226;2023-07-13T00:46:55;101351.19;;;14.10;100.00
76022;BME280;64718;52.124;6.226;2023-07-13T00:49:25;101358.13;;;14.29;100.00
76022;BME280;64718;52.124;6.226;2023-07-13T00:51:55;101365.28;;;14.25;100.00
76022;BME280;64718;52.124;6.226;2023-07-13T00:54:26;101358.28;;;14.25;100.00
76022;BME280;64718;52.124;6.226;2023-07-13T00:56:57;101358.66;;;14.35;100.00
76022;BME280;64718;52.124;6.226;2023-07-13T00:59:25;101355.22;;;14.35;100.00
76022;BME280;64718;52.124;6.226;2023-07-13T01:01:53;101361.91;;;14.23;100.00
76022;BME280;64718;52.124;6.226;2023-07-13T01:04:23;101346.34;;;14.20;100.00
76022;BME280;64718;52.124;6.226;2023-07-13T01:06:50;101348.97;;;14.20;100.00
76022;BME280;64718;52.124;6.226;2023-07-13T01:09:17;101356.59;;;14.24;100.00
76022;BME280;64718;52.124;6.226;2023-07-13T01:11:44;101355.34;;;14.32;100.00
76022;BME280;64718;52.124;6.226;2023-07-13T01:14:13;101353.00;;;14.44;100.00
76022;BME280;64718;52.124;6.226;2023-07-13T01:16:41;101354.97;;;14.39;100.00
76022;BME280;64718;52.124;6.226;2023-07-13T01:19:16;101364.28;;;14.46;100.00
76022;BME280;64718;52.124;6.226;2023-07-13T01:21:52;101366.81;;;14.48;100.00
76022;BME280;64718;52.124;6.226;2023-07-13T01:24:19;101356.66;;;14.40;100.00
76022;BME280;64718;52.124;6.226;2023-07-13T01:26:46;101354.19;;;14.37;100.00
76022;BME280;64718;52.124;6.226;2023-07-13T01:29:12;101356.97;;;14.34;100.00
76022;BME280;64718;52.124;6.226;2023-07-13T01:31:39;101354.50;;;14.31;100.00
76022;BME280;64718;52.124;6.226;2023-07-13T01:34:06;101358.13;;;14.29;100.00
76022;BME280;64718;52.124;6.226;2023-07-13T01:36:33;101351.81;;;14.33;100.00
76022;BME280;64718;52.124;6.226;2023-07-13T01:39:03;101359.75;;;14.31;100.00
76022;BME280;64718;52.124;6.226;2023-07-13T01:41:29;101362.91;;;14.38;100.00
76022;BME280;64718;52.124;6.226;2023-07-13T01:43:56;101361.38;;;14.34;100.00
76022;BME280;64718;52.124;6.226;2023-07-13T01:46:23;101358.34;;;14.24;100.00
76022;BME280;64718;52.124;6.226;2023-07-13T01:48:50;101363.59;;;14.24;100.00
76022;BME280;64718;52.124;6.226;2023-07-13T01:51:20;101359.75;;;14.14;100.00
76022;BME280;64718;52.124;6.226;2023-07-13T01:53:47;101357.75;;;14.19;100.00
76022;BME280;64718;52.124;6.226;2023-07-13T01:56:15;101353.72;;;14.12;100.00
76022;BME280;64718;52.124;6.226;2023-07-13T01:58:41;101347.50;;;14.14;100.00
76022;BME280;64718;52.124;6.226;2023-07-13T02:01:08;101349.66;;;14.23;100.00
76022;BME280;64718;52.124;6.226;2023-07-13T02:03:35;101342.81;;;14.21;100.00
76022;BME280;64718;52.124;6.226;2023-07-13T02:06:02;101357.66;;;14.20;100.00
76022;BME280;64718;52.124;6.226;2023-07-13T02:08:29;101351.66;;;14.18;100.00
76022;BME280;64718;52.124;6.226;2023-07-13T02:10:55;101353.66;;;14.31;100.00
76022;BME280;64718;52.124;6.226;2023-07-13T02:13:24;101357.81;;;14.35;100.00
76022;BME280;64718;52.124;6.226;2023-07-13T02:15:50;101360.50;;;14.52;100.00
76022;BME280;64718;52.124;6.226;2023-07-13T02:18:17;101360.03;;;14.61;100.00
76022;BME280;64718;52.124;6.226;2023-07-13T02:20:44;101360.47;;;14.69;100.00
76022;BME280;64718;52.124;6.226;2023-07-13T02:23:11;101357.63;;;14.74;100.00
76022;BME280;64718;52.124;6.226;2023-07-13T02:25:38;101342.16;;;14.69;100.00
76022;BME280;64718;52.124;6.226;2023-07-13T02:28:04;101347.88;;;14.60;100.00
76022;BME280;64718;52.124;6.226;2023-07-13T02:30:34;101357.56;;;14.58;100.00
76022;BME280;64718;52.124;6.226;2023-07-13T02:33:01;101362.34;;;14.50;100.00
76022;BME280;64718;52.124;6.226;2023-07-13T02:35:28;101361.97;;;14.39;100.00
76022;BME280;64718;52.124;6.226;2023-07-13T02:37:55;101362.97;;;14.36;100.00
76022;BME280;64718;52.124;6.226;2023-07-13T02:40:21;101364.06;;;14.32;100.00
76022;BME280;64718;52.124;6.226;2023-07-13T02:42:48;101361.97;;;14.21;100.00
76022;BME280;64718;52.124;6.226;2023-07-13T02:45:15;101372.03;;;14.12;100.00
76022;BME280;64718;52.124;6.226;2023-07-13T02:47:43;101368.13;;;14.03;100.00
76022;BME280;64718;52.124;6.226;2023-07-13T02:50:10;101363.03;;;14.00;100.00
76022;BME280;64718;52.124;6.226;2023-07-13T02:52:37;101363.66;;;14.05;100.00
76022;BME280;64718;52.124;6.226;2023-07-13T02:55:04;101370.81;;;14.02;100.00
76022;BME280;64718;52.124;6.226;2023-07-13T02:57:30;101371.50;;;14.05;100.00
76022;BME280;64718;52.124;6.226;2023-07-13T02:59:58;101372.50;;;14.20;100.00
76022;BME280;64718;52.124;6.226;2023-07-13T03:02:25;101378.41;;;14.42;100.00
76022;BME280;64718;52.124;6.226;2023-07-13T03:04:54;101373.50;;;14.53;100.00
76022;BME280;64718;52.124;6.226;2023-07-13T03:07:21;101376.06;;;14.55;100.00
76022;BME280;64718;52.124;6.226;2023-07-13T03:09:48;101382.13;;;14.55;100.00
76022;BME280;64718;52.124;6.226;2023-07-13T03:12:14;101384.06;;;14.52;100.00
76022;BME280;64718;52.124;6.226;2023-07-13T03:14:41;101388.59;;;14.48;100.00
76022;BME280;64718;52.124;6.226;2023-07-13T03:17:08;101385.38;;;14.42;100.00
76022;BME280;64718;52.124;6.226;2023-07-13T03:19:35;101385.84;;;14.33;100.00
76022;BME280;64718;52.124;6.226;2023-07-13T03:22:03;101376.53;;;14.27;100.00
76022;BME280;64718;52.124;6.226;2023-07-13T03:24:30;101388.84;;;14.25;100.00
76022;BME280;64718;52.124;6.226;2023-07-13T03:26:58;101383.97;;;14.17;100.00
76022;BME280;64718;52.124;6.226;2023-07-13T03:29:25;101382.28;;;14.16;100.00
76022;BME280;64718;52.124;6.226;2023-07-13T03:31:52;101390.34;;;14.12;100.00
76022;BME280;64718;52.124;6.226;2023-07-13T03:34:19;101391.34;;;14.09;100.00
76022;BME280;64718;52.124;6.226;2023-07-13T03:36:45;101395.75;;;14.09;100.00
76022;BME280;64718;52.124;6.226;2023-07-13T03:39:14;101400.13;;;14.08;100.00
76022;BME280;64718;52.124;6.226;2023-07-13T03:41:40;101396.59;;;14.09;100.00
76022;BME280;64718;52.124;6.226;2023-07-13T03:44:07;101400.41;;;14.02;100.00
76022;BME280;64718;52.124;6.226;2023-07-13T03:46:34;101398.88;;;13.98;100.00
76022;BME280;64718;52.124;6.226;2023-07-13T03:49:01;101405.78;;;13.99;100.00
76022;BME280;64718;52.124;6.226;2023-07-13T03:51:28;101415.56;;;13.96;100.00
76022;BME280;64718;52.124;6.226;2023-07-13T03:53:54;101415.19;;;14.03;100.00
76022;BME280;64718;52.124;6.226;2023-07-13T03:56:23;101414.13;;;14.07;100.00
76022;BME280;64718;52.124;6.226;2023-07-13T03:58:50;101408.03;;;14.07;100.00
76022;BME280;64718;52.124;6.226;2023-07-13T04:01:19;101411.50;;;14.07;100.00
76022;BME280;64718;52.124;6.226;2023-07-13T04:03:46;101415.44;;;14.16;100.00
76022;BME280;64718;52.124;6.226;2023-07-13T04:06:16;101410.22;;;14.16;100.00
76022;BME280;64718;52.124;6.226;2023-07-13T04:08:46;101412.53;;;14.22;100.00
76022;BME280;64718;52.124;6.226;2023-07-13T04:11:14;101415.63;;;14.30;100.00
76022;BME280;64718;52.124;6.226;2023-07-13T04:13:42;101425.88;;;14.35;100.00
76022;BME280;64718;52.124;6.226;2023-07-13T04:16:09;101422.09;;;14.40;100.00
76022;BME280;64718;52.124;6.226;2023-07-13T04:18:36;101423.75;;;14.43;100.00
76022;BME280;64718;52.124;6.226;2023-07-13T04:21:03;101430.41;;;14.50;100.00
76022;BME280;64718;52.124;6.226;2023-07-13T04:23:29;101430.09;;;14.56;100.00
76022;BME280;64718;52.124;6.226;2023-07-13T04:25:56;101419.31;;;14.62;100.00
76022;BME280;64718;52.124;6.226;2023-07-13T04:28:24;101425.09;;;14.69;100.00
76022;BME280;64718;52.124;6.226;2023-07-13T04:30:54;101428.25;;;14.75;100.00
76022;BME280;64718;52.124;6.226;2023-07-13T04:33:21;101422.53;;;14.84;100.00
76022;BME280;64718;52.124;6.226;2023-07-13T04:35:49;101432.72;;;14.91;100.00
76022;BME280;64718;52.124;6.226;2023-07-13T04:38:21;101427.56;;;15.06;100.00
76022;BME280;64718;52.124;6.226;2023-07-13T04:40:50;101430.22;;;15.22;100.00
76022;BME280;64718;52.124;6.226;2023-07-13T04:43:17;101430.56;;;15.32;100.00
76022;BME280;64718;52.124;6.226;2023-07-13T04:45:44;101430.84;;;15.43;100.00
76022;BME280;64718;52.124;6.226;2023-07-13T04:48:12;101434.16;;;15.64;100.00
76022;BME280;64718;52.124;6.226;2023-07-13T04:50:39;101434.66;;;16.02;100.00
76022;BME280;64718;52.124;6.226;2023-07-13T04:53:05;101432.81;;;16.50;98.17
76022;BME280;64718;52.124;6.226;2023-07-13T04:55:32;101430.06;;;16.83;94.55
76022;BME280;64718;52.124;6.226;2023-07-13T04:57:59;101440.41;;;17.00;92.89
76022;BME280;64718;52.124;6.226;2023-07-13T05:00:26;101437.41;;;17.06;93.42
76022;BME280;64718;52.124;6.226;2023-07-13T05:02:54;101440.75;;;17.38;91.73
76022;BME280;64718;52.124;6.226;2023-07-13T05:05:23;101442.22;;;17.85;89.85
76022;BME280;64718;52.124;6.226;2023-07-13T05:07:49;101449.47;;;17.81;89.08
76022;BME280;64718;52.124;6.226;2023-07-13T05:10:16;101456.13;;;17.87;88.51
76022;BME280;64718;52.124;6.226;2023-07-13T05:12:43;101453.25;;;18.18;86.61
76022;BME280;64718;52.124;6.226;2023-07-13T05:15:11;101451.22;;;18.09;86.96
76022;BME280;64718;52.124;6.226;2023-07-13T05:17:37;101452.28;;;18.46;84.19
76022;BME280;64718;52.124;6.226;2023-07-13T05:20:06;101457.56;;;18.19;86.39
76022;BME280;64718;52.124;6.226;2023-07-13T05:22:34;101460.56;;;18.27;86.80
76022;BME280;64718;52.124;6.226;2023-07-13T05:25:02;101456.88;;;18.03;88.25
76022;BME280;64718;52.124;6.226;2023-07-13T05:27:29;101467.53;;;17.73;89.83
76022;BME280;64718;52.124;6.226;2023-07-13T05:29:56;101468.06;;;17.35;92.58
76022;BME280;64718;52.124;6.226;2023-07-13T05:32:23;101469.53;;;17.25;93.29
76022;BME280;64718;52.124;6.226;2023-07-13T05:34:49;101466.28;;;17.64;92.29
76022;BME280;64718;52.124;6.226;2023-07-13T05:37:16;101460.00;;;18.76;88.78
76022;BME280;64718;52.124;6.226;2023-07-13T05:39:44;101458.81;;;18.68;85.91
76022;BME280;64718;52.124;6.226;2023-07-13T05:42:11;101463.72;;;18.32;88.40
76022;BME280;64718;52.124;6.226;2023-07-13T05:44:38;101470.94;;;18.43;89.68
76022;BME280;64718;52.124;6.226;2023-07-13T05:47:05;101473.91;;;18.78;88.05
76022;BME280;64718;52.124;6.226;2023-07-13T05:49:32;101479.28;;;18.64;87.15
76022;BME280;64718;52.124;6.226;2023-07-13T05:51:58;101486.88;;;17.72;91.98
76022;BME280;64718;52.124;6.226;2023-07-13T05:54:26;101489.69;;;17.41;95.25
76022;BME280;64718;52.124;6.226;2023-07-13T05:56:54;101491.66;;;17.37;95.59
76022;BME280;64718;52.124;6.226;2023-07-13T05:59:21;101495.94;;;17.24;96.87
76022;BME280;64718;52.124;6.226;2023-07-13T06:01:48;101505.41;;;17.12;96.56
76022;BME280;64718;52.124;6.226;2023-07-13T06:04:17;101497.72;;;17.23;97.04
76022;BME280;64718;52.124;6.226;2023-07-13T06:06:44;101499.00;;;17.75;94.65
76022;BME280;64718;52.124;6.226;2023-07-13T06:09:11;101508.47;;;17.49;95.29
76022;BME280;64718;52.124;6.226;2023-07-13T06:11:37;101510.91;;;17.52;95.48
76022;BME280;64718;52.124;6.226;2023-07-13T06:14:05;101509.13;;;17.38;95.65
76022;BME280;64718;52.124;6.226;2023-07-13T06:16:32;101511.00;;;17.64;95.23
76022;BME280;64718;52.124;6.226;2023-07-13T06:18:59;101520.03;;;17.46;95.37
76022;BME280;64718;52.124;6.226;2023-07-13T06:21:25;101520.44;;;17.24;96.47
76022;BME280;64718;52.124;6.226;2023-07-13T06:23:52;101523.88;;;17.55;95.83
76022;BME280;64718;52.124;6.226;2023-07-13T06:26:20;101524.91;;;17.38;96.48
76022;BME280;64718;52.124;6.226;2023-07-13T06:28:47;101527.53;;;17.52;96.53
76022;BME280;64718;52.124;6.226;2023-07-13T06:31:15;101528.63;;;17.34;95.95
76022;BME280;64718;52.124;6.226;2023-07-13T06:33:42;101532.72;;;17.54;95.93
76022;BME280;64718;52.124;6.226;2023-07-13T06:36:10;101533.09;;;17.62;95.71
76022;BME280;64718;52.124;6.226;2023-07-13T06:38:38;101534.63;;;17.80;95.06
76022;BME280;64718;52.124;6.226;2023-07-13T06:41:05;101535.56;;;18.08;92.62
76022;BME280;64718;52.124;6.226;2023-07-13T06:43:32;101538.69;;;18.41;91.53
76022;BME280;64718;52.124;6.226;2023-07-13T06:45:59;101541.09;;;18.17;92.42
76022;BME280;64718;52.124;6.226;2023-07-13T06:48:27;101537.50;;;18.59;89.80
76022;BME280;64718;52.124;6.226;2023-07-13T06:50:54;101534.91;;;18.99;88.66
76022;BME280;64718;52.124;6.226;2023-07-13T06:53:21;101545.16;;;18.50;89.76
76022;BME280;64718;52.124;6.226;2023-07-13T06:55:49;101543.81;;;18.57;90.06
76022;BME280;64718;52.124;6.226;2023-07-13T06:58:17;101545.53;;;18.58;89.07
76022;BME280;64718;52.124;6.226;2023-07-13T07:00:45;101537.75;;;18.96;88.31
76022;BME280;64718;52.124;6.226;2023-07-13T07:03:12;101537.19;;;19.18;86.64
76022;BME280;64718;52.124;6.226;2023-07-13T07:05:40;101551.28;;;18.50;89.34
76022;BME280;64718;52.124;6.226;2023-07-13T07:08:07;101550.25;;;18.53;91.03
76022;BME280;64718;52.124;6.226;2023-07-13T07:10:34;101552.13;;;18.51;90.71
76022;BME280;64718;52.124;6.226;2023-07-13T07:13:02;101561.50;;;18.69;91.09
76022;BME280;64718;52.124;6.226;2023-07-13T07:15:29;101556.13;;;18.29;91.37
76022;BME280;64718;52.124;6.226;2023-07-13T07:17:55;101557.84;;;18.57;91.03
76022;BME280;64718;52.124;6.226;2023-07-13T07:20:22;101553.63;;;18.41;91.51
76022;BME280;64718;52.124;6.226;2023-07-13T07:22:50;101554.72;;;18.92;89.34
76022;BME280;64718;52.124;6.226;2023-07-13T07:25:17;101546.16;;;19.15;87.53
76022;BME280;64718;52.124;6.226;2023-07-13T07:27:44;101549.22;;;19.22;87.31
76022;BME280;64718;52.124;6.226;2023-07-13T07:30:12;101550.59;;;19.40;86.84
76022;BME280;64718;52.124;6.226;2023-07-13T07:32:39;101554.50;;;19.22;86.88
76022;BME280;64718;52.124;6.226;2023-07-13T07:35:06;101561.53;;;19.09;87.50
76022;BME280;64718;52.124;6.226;2023-07-13T07:37:33;101560.22;;;19.41;85.79
76022;BME280;64718;52.124;6.226;2023-07-13T07:40:01;101550.63;;;19.91;83.58
76022;BME280;64718;52.124;6.226;2023-07-13T07:42:28;101554.53;;;19.60;84.75
76022;BME280;64718;52.124;6.226;2023-07-13T07:44:54;101559.09;;;20.45;80.76
76022;BME280;64718;52.124;6.226;2023-07-13T07:47:21;101550.25;;;20.21;81.87
76022;BME280;64718;52.124;6.226;2023-07-13T07:49:49;101553.09;;;20.18;81.63
76022;BME280;64718;52.124;6.226;2023-07-13T07:52:16;101553.38;;;19.89;81.99
76022;BME280;64718;52.124;6.226;2023-07-13T07:54:42;101543.78;;;19.88;82.71
76022;BME280;64718;52.124;6.226;2023-07-13T07:57:11;101543.66;;;19.65;84.63
76022;BME280;64718;52.124;6.226;2023-07-13T07:59:37;101542.09;;;19.87;83.82
76022;BME280;64718;52.124;6.226;2023-07-13T08:02:05;101542.41;;;19.83;83.29
76022;BME280;64718;52.124;6.226;2023-07-13T08:04:32;101544.94;;;19.59;84.95
76022;BME280;64718;52.124;6.226;2023-07-13T08:06:59;101537.94;;;19.33;85.91
76022;BME280;64718;52.124;6.226;2023-07-13T08:09:28;101541.84;;;19.27;86.26
76022;BME280;64718;52.124;6.226;2023-07-13T08:11:54;101537.63;;;19.37;85.33
76022;BME280;64718;52.124;6.226;2023-07-13T08:14:23;101541.88;;;19.52;84.96
76022;BME280;64718;52.124;6.226;2023-07-13T08:16:49;101543.44;;;19.93;84.25
76022;BME280;64718;52.124;6.226;2023-07-13T08:19:16;101547.34;;;20.49;80.65
76022;BME280;64718;52.124;6.226;2023-07-13T08:21:43;101544.84;;;20.22;81.68
76022;BME280;64718;52.124;6.226;2023-07-13T08:24:09;101545.56;;;20.37;80.46
76022;BME280;64718;52.124;6.226;2023-07-13T08:26:36;101542.47;;;20.56;79.19
76022;BME280;64718;52.124;6.226;2023-07-13T08:29:03;101547.00;;;20.05;81.08
76022;BME280;64718;52.124;6.226;2023-07-13T08:31:31;101548.25;;;20.12;81.58
76022;BME280;64718;52.124;6.226;2023-07-13T08:33:58;101553.59;;;20.48;79.89
76022;BME280;64718;52.124;6.226;2023-07-13T08:36:25;101549.25;;;20.47;78.98
76022;BME280;64718;52.124;6.226;2023-07-13T08:38:53;101555.13;;;20.27;81.06
76022;BME280;64718;52.124;6.226;2023-07-13T08:41:23;101554.28;;;20.27;81.08
76022;BME280;64718;52.124;6.226;2023-07-13T08:43:52;101547.34;;;20.49;78.65
76022;BME280;64718;52.124;6.226;2023-07-13T08:46:25;101539.81;;;21.15;76.32
76022;BME280;64718;52.124;6.226;2023-07-13T08:48:57;101542.75;;;21.23;75.41
76022;BME280;64718;52.124;6.226;2023-07-13T08:51:31;101538.38;;;22.24;71.11
76022;BME280;64718;52.124;6.226;2023-07-13T08:54:02;101533.91;;;21.58;74.80
76022;BME280;64718;52.124;6.226;2023-07-13T08:56:31;101527.50;;;20.92;76.52
76022;BME280;64718;52.124;6.226;2023-07-13T08:59:01;101528.22;;;20.70;77.13
76022;BME280;64718;52.124;6.226;2023-07-13T09:01:49;101529.53;;;20.40;78.04
76022;BME280;64718;52.124;6.226;2023-07-13T09:04:25;101530.38;;;21.35;74.83
76022;BME280;64718;52.124;6.226;2023-07-13T09:07:00;101532.91;;;21.25;74.30
76022;BME280;64718;52.124;6.226;2023-07-13T09:09:39;101518.22;;;21.32;73.64
76022;BME280;64718;52.124;6.226;2023-07-13T09:12:12;101531.97;;;21.02;74.03
76022;BME280;64718;52.124;6.226;2023-07-13T09:14:45;101526.53;;;20.69;75.34
76022;BME280;64718;52.124;6.226;2023-07-13T09:17:17;101529.81;;;20.48;75.90
76022;BME280;64718;52.124;6.226;2023-07-13T09:19:51;101539.66;;;20.46;81.17
76022;BME280;64718;52.124;6.226;2023-07-13T09:22:21;101543.28;;;20.20;84.27
76022;BME280;64718;52.124;6.226;2023-07-13T09:24:55;101538.53;;;20.12;82.59
76022;BME280;64718;52.124;6.226;2023-07-13T09:27:30;101533.78;;;20.17;82.68
76022;BME280;64718;52.124;6.226;2023-07-13T09:30:07;101534.88;;;20.39;80.05
76022;BME280;64718;52.124;6.226;2023-07-13T09:32:38;101539.22;;;21.58;76.61
76022;BME280;64718;52.124;6.226;2023-07-13T09:35:11;101544.38;;;22.37;70.33
76022;BME280;64718;52.124;6.226;2023-07-13T09:37:38;101543.56;;;21.59;70.53
76022;BME280;64718;52.124;6.226;2023-07-13T09:40:24;101546.59;;;22.10;69.62
76022;BME280;64718;52.124;6.226;2023-07-13T09:42:52;101550.41;;;21.72;70.60
76022;BME280;64718;52.124;6.226;2023-07-13T09:45:27;101541.13;;;22.34;69.40
76022;BME280;64718;52.124;6.226;2023-07-13T09:47:59;101544.31;;;22.17;68.93
76022;BME280;64718;52.124;6.226;2023-07-13T09:50:27;101537.31;;;22.16;68.10
76022;BME280;64718;52.124;6.226;2023-07-13T09:52:55;101539.34;;;22.01;66.66
76022;BME280;64718;52.124;6.226;2023-07-13T09:55:27;101546.06;;;22.38;67.42
76022;BME280;64718;52.124;6.226;2023-07-13T09:57:55;101524.31;;;21.22;68.54
76022;BME280;64718;52.124;6.226;2023-07-13T10:00:24;101530.44;;;21.11;69.18
76022;BME280;64718;52.124;6.226;2023-07-13T10:03:03;101534.41;;;20.58;69.88
76022;BME280;64718;52.124;6.226;2023-07-13T10:05:39;101544.00;;;20.22;70.90
76022;BME280;64718;52.124;6.226;2023-07-13T10:08:09;101554.16;;;20.15;72.05
76022;BME280;64718;52.124;6.226;2023-07-13T10:10:41;101545.34;;;19.53;72.91
76022;BME280;64718;52.124;6.226;2023-07-13T10:13:24;101552.53;;;19.64;73.56
76022;BME280;64718;52.124;6.226;2023-07-13T10:15:52;101562.38;;;20.97;70.38
76022;BME280;64718;52.124;6.226;2023-07-13T10:18:21;101564.78;;;21.35;70.31
76022;BME280;64718;52.124;6.226;2023-07-13T10:20:50;101566.53;;;21.58;69.83
76022;BME280;64718;52.124;6.226;2023-07-13T10:23:24;101570.19;;;22.02;67.96
76022;BME280;64718;52.124;6.226;2023-07-13T10:25:53;101578.53;;;22.08;67.32
76022;BME280;64718;52.124;6.226;2023-07-13T10:28:31;101576.59;;;21.07;66.39
76022;BME280;64718;52.124;6.226;2023-07-13T10:31:01;101578.38;;;21.30;66.06
76022;BME280;64718;52.124;6.226;2023-07-13T10:33:28;101571.84;;;21.81;64.77
76022;BME280;64718;52.124;6.226;2023-07-13T10:36:03;101579.84;;;22.14;62.57
76022;BME280;64718;52.124;6.226;2023-07-13T10:38:35;101577.38;;;21.89;65.24
76022;BME280;64718;52.124;6.226;2023-07-13T10:41:04;101579.94;;;22.01;64.06
76022;BME280;64718;52.124;6.226;2023-07-13T10:43:34;101584.19;;;22.15;63.09
76022;BME280;64718;52.124;6.226;2023-07-13T10:46:03;101577.28;;;22.35;62.59
76022;BME280;64718;52.124;6.226;2023-07-13T10:48:33;101580.78;;;22.79;62.45
76022;BME280;64718;52.124;6.226;2023-07-13T10:51:05;101579.66;;;22.49;62.78
76022;BME280;64718;52.124;6.226;2023-07-13T10:53:34;101589.06;;;22.42;62.88
76022;BME280;64718;52.124;6.226;2023-07-13T10:56:02;101582.16;;;22.73;62.20
76022;BME280;64718;52.124;6.226;2023-07-13T10:58:35;101573.75;;;22.46;63.91
76022;BME280;64718;52.124;6.226;2023-07-13T11:01:08;101572.25;;;22.75;62.67
76022;BME280;64718;52.124;6.226;2023-07-13T11:03:37;101569.78;;;23.26;61.80
76022;BME280;64718;52.124;6.226;2023-07-13T11:06:08;101562.91;;;22.60;63.73
76022;BME280;64718;52.124;6.226;2023-07-13T11:08:38;101572.19;;;21.65;67.75
76022;BME280;64718;52.124;6.226;2023-07-13T11:11:36;101600.28;;;21.08;77.96
76022;BME280;64718;52.124;6.226;2023-07-13T11:14:04;101614.94;;;20.28;83.01
76022;BME280;64718;52.124;6.226;2023-07-13T11:16:42;101605.34;;;20.02;87.47
76022;BME280;64718;52.124;6.226;2023-07-13T11:22:22;101607.78;;;20.91;87.98
76022;BME280;64718;52.124;6.226;2023-07-13T11:24:57;101607.31;;;20.36;83.31
76022;BME280;64718;52.124;6.226;2023-07-13T11:27:35;101602.88;;;20.11;84.01
76022;BME280;64718;52.124;6.226;2023-07-13T11:30:21;101612.50;;;19.62;83.99
76022;BME280;64718;52.124;6.226;2023-07-13T11:35:34;101635.28;;;19.10;90.54
76022;BME280;64718;52.124;6.226;2023-07-13T11:38:13;101637.91;;;18.83;90.71
76022;BME280;64718;52.124;6.226;2023-07-13T11:40:43;101642.81;;;18.75;93.01
76022;BME280;64718;52.124;6.226;2023-07-13T11:43:13;101635.56;;;18.79;93.56
76022;BME280;64718;52.124;6.226;2023-07-13T11:45:40;101641.78;;;18.78;88.90
76022;BME280;64718;52.124;6.226;2023-07-13T11:48:19;101630.94;;;19.49;84.29
76022;BME280;64718;52.124;6.226;2023-07-13T11:50:51;101626.16;;;19.68;82.18
76022;BME280;64718;52.124;6.226;2023-07-13T11:53:20;101631.81;;;19.62;80.30
76022;BME280;64718;52.124;6.226;2023-07-13T11:55:47;101642.34;;;19.49;76.80
76022;BME280;64718;52.124;6.226;2023-07-13T11:58:18;101645.34;;;19.57;75.15
76022;BME280;64718;52.124;6.226;2023-07-13T12:00:46;101646.44;;;19.80;76.16
76022;BME280;64718;52.124;6.226;2023-07-13T12:03:19;101635.56;;;19.85;79.97
76022;BME280;64718;52.124;6.226;2023-07-13T12:05:56;101632.91;;;19.85;81.51
76022;BME280;64718;52.124;6.226;2023-07-13T12:08:25;101631.97;;;20.24;80.85
76022;BME280;64718;52.124;6.226;2023-07-13T12:11:04;101635.63;;;20.34;79.92
76022;BME280;64718;52.124;6.226;2023-07-13T12:13:36;101631.44;;;20.06;79.73
76022;BME280;64718;52.124;6.226;2023-07-13T12:16:11;101624.66;;;20.77;78.93
76022;BME280;64718;52.124;6.226;2023-07-13T12:18:38;101620.66;;;21.19;77.96
76022;BME280;64718;52.124;6.226;2023-07-13T12:21:13;101615.16;;;21.57;72.82
76022;BME280;64718;52.124;6.226;2023-07-13T12:23:43;101621.81;;;21.96;73.13
76022;BME280;64718;52.124;6.226;2023-07-13T12:26:11;101618.66;;;21.23;71.84
76022;BME280;64718;52.124;6.226;2023-07-13T12:28:44;101623.66;;;20.91;73.22
76022;BME280;64718;52.124;6.226;2023-07-13T12:31:26;101621.28;;;21.23;73.96
76022;BME280;64718;52.124;6.226;2023-07-13T12:33:57;101625.06;;;21.31;73.93
76022;BME280;64718;52.124;6.226;2023-07-13T12:36:24;101619.03;;;21.64;73.40
76022;BME280;64718;52.124;6.226;2023-07-13T12:38:53;101614.69;;;21.63;73.37
76022;BME280;64718;52.124;6.226;2023-07-13T12:41:19;101620.84;;;21.05;73.94
76022;BME280;64718;52.124;6.226;2023-07-13T12:43:48;101620.84;;;21.05;74.29
76022;BME280;64718;52.124;6.226;2023-07-13T12:46:18;101624.78;;;21.47;73.18
76022;BME280;64718;52.124;6.226;2023-07-13T12:48:49;101631.88;;;21.23;74.59
76022;BME280;64718;52.124;6.226;2023-07-13T12:51:16;101623.84;;;21.70;73.90
76022;BME280;64718;52.124;6.226;2023-07-13T12:53:48;101629.56;;;21.42;73.13
76022;BME280;64718;52.124;6.226;2023-07-13T12:56:20;101662.91;;;20.47;77.59
76022;BME280;64718;52.124;6.226;2023-07-13T12:58:48;101656.41;;;19.23;92.54